sensor_id;sensor_type;location;lat;lon;timestamp;temperature;humidity
37938;DHT22;23763;48.130;11.602;2022-09-21T00:01:06;9.30;99.90
37938;DHT22;23763;48.130;11.602;2022-09-21T00:03:32;9.30;99.90
37938;DHT22;23763;48.130;11.602;2022-09-21T00:06:12;9.30;99.90
37938;DHT22;23763;48.130;11.602;2022-09-21T00:08:39;9.40;99.90
37938;DHT22;23763;48.130;11.602;2022-09-21T00:11:05;9.40;99.90
37938;DHT22;23763;48.130;11.602;2022-09-21T00:13:32;9.30;99.90
37938;DHT22;23763;48.130;11.602;2022-09-21T00:15:59;9.20;99.90
37938;DHT22;23763;48.130;11.602;2022-09-21T00:18:25;9.20;99.90
37938;DHT22;23763;48.130;11.602;2022-09-21T00:20:51;9.30;99.90
37938;DHT22;23763;48.130;11.602;2022-09-21T00:23:17;9.30;99.90
37938;DHT22;23763;48.130;11.602;2022-09-21T00:25:43;9.30;99.90
37938;DHT22;23763;48.130;11.602;2022-09-21T00:28:09;9.40;99.90
37938;DHT22;23763;48.130;11.602;2022-09-21T00:30:36;9.40;99.90
37938;DHT22;23763;48.130;11.602;2022-09-21T00:33:01;9.40;99.90
37938;DHT22;23763;48.130;11.602;2022-09-21T00:35:27;9.40;99.90
37938;DHT22;23763;48.130;11.602;2022-09-21T00:37:53;9.40;99.90
37938;DHT22;23763;48.130;11.602;2022-09-21T00:40:19;9.30;99.90
37938;DHT22;23763;48.130;11.602;2022-09-21T00:42:44;9.30;99.90
37938;DHT22;23763;48.130;11.602;2022-09-21T00:45:11;9.20;99.90
37938;DHT22;23763;48.130;11.602;2022-09-21T00:47:49;9.20;99.90
37938;DHT22;23763;48.130;11.602;2022-09-21T00:50:21;9.10;99.90
37938;DHT22;23763;48.130;11.602;2022-09-21T00:52:52;9.20;99.90
37938;DHT22;23763;48.130;11.602;2022-09-21T00:55:23;9.10;99.90
37938;DHT22;23763;48.130;11.602;2022-09-21T00:57:53;9.00;99.90
37938;DHT22;23763;48.130;11.602;2022-09-21T01:00:20;9.00;99.90
37938;DHT22;23763;48.130;11.602;2022-09-21T01:02:46;8.90;99.90
37938;DHT22;23763;48.130;11.602;2022-09-21T01:05:12;8.80;99.90
37938;DHT22;23763;48.130;11.602;2022-09-21T01:07:42;8.80;99.90
37938;DHT22;23763;48.130;11.602;2022-09-21T01:10:12;8.80;99.90
37938;DHT22;23763;48.130;11.602;2022-09-21T01:15:36;8.80;99.90
37938;DHT22;23763;48.130;11.602;2022-09-21T01:18:19;8.70;99.90
37938;DHT22;23763;48.130;11.602;2022-09-21T01:29:09;8.70;99.90
37938;DHT22;23763;48.130;11.602;2022-09-21T01:35:04;8.70;99.90
37938;DHT22;23763;48.130;11.602;2022-09-21T01:37:10;8.70;99.90
37938;DHT22;23763;48.130;11.602;2022-09-21T01:39:39;8.60;99.90
37938;DHT22;23763;48.130;11.602;2022-09-21T01:42:08;8.60;99.90
37938;DHT22;23763;48.130;11.602;2022-09-21T01:44:37;8.60;99.90
37938;DHT22;23763;48.130;11.602;2022-09-21T01:47:06;8.50;99.90
37938;DHT22;23763;48.130;11.602;2022-09-21T01:49:39;8.50;99.90
37938;DHT22;23763;48.130;11.602;2022-09-21T01:52:30;8.50;99.90
37938;DHT22;23763;48.130;11.602;2022-09-21T01:55:02;8.40;99.90
37938;DHT22;23763;48.130;11.602;2022-09-21T02:00:25;8.30;99.90
37938;DHT22;23763;48.130;11.602;2022-09-21T02:03:03;8.30;99.90
37938;DHT22;23763;48.130;11.602;2022-09-21T02:05:29;8.30;99.90
37938;DHT22;23763;48.130;11.602;2022-09-21T02:07:56;8.20;99.90
37938;DHT22;23763;48.130;11.602;2022-09-21T02:10:34;8.30;99.90
37938;DHT22;23763;48.130;11.602;2022-09-21T02:13:03;8.20;99.90
37938;DHT22;23763;48.130;11.602;2022-09-21T02:16:02;8.20;99.90
37938;DHT22;23763;48.130;11.602;2022-09-21T02:21:02;8.10;99.90
37938;DHT22;23763;48.130;11.602;2022-09-21T02:23:40;8.10;99.90
37938;DHT22;23763;48.130;11.602;2022-09-21T02:26:52;8.00;99.90
37938;DHT22;23763;48.130;11.602;2022-09-21T02:32:10;8.10;99.90
37938;DHT22;23763;48.130;11.602;2022-09-21T02:34:43;8.00;99.90
37938;DHT22;23763;48.130;11.602;2022-09-21T02:40:06;8.00;99.90
37938;DHT22;23763;48.130;11.602;2022-09-21T02:42:37;8.00;99.90
37938;DHT22;23763;48.130;11.602;2022-09-21T02:45:12;7.90;99.90
37938;DHT22;23763;48.130;11.602;2022-09-21T02:47:57;7.90;99.90
37938;DHT22;23763;48.130;11.602;2022-09-21T02:50:28;7.90;99.90
37938;DHT22;23763;48.130;11.602;2022-09-21T02:53:00;7.90;99.90
37938;DHT22;23763;48.130;11.602;2022-09-21T02:55:28;7.90;99.90
37938;DHT22;23763;48.130;11.602;2022-09-21T02:57:54;7.90;99.90
37938;DHT22;23763;48.130;11.602;2022-09-21T03:00:20;7.90;99.90
37938;DHT22;23763;48.130;11.602;2022-09-21T03:02:46;7.90;99.90
37938;DHT22;23763;48.130;11.602;2022-09-21T03:05:13;8.00;99.90
37938;DHT22;23763;48.130;11.602;2022-09-21T03:07:39;8.00;99.90
37938;DHT22;23763;48.130;11.602;2022-09-21T03:10:06;8.00;99.90
37938;DHT22;23763;48.130;11.602;2022-09-21T03:12:32;8.00;99.90
37938;DHT22;23763;48.130;11.602;2022-09-21T03:14:58;8.10;99.90
37938;DHT22;23763;48.130;11.602;2022-09-21T03:17:25;8.00;99.90
37938;DHT22;23763;48.130;11.602;2022-09-21T03:19:51;8.00;99.90
37938;DHT22;23763;48.130;11.602;2022-09-21T03:22:20;8.10;99.90
37938;DHT22;23763;48.130;11.602;2022-09-21T03:24:46;8.10;99.90
37938;DHT22;23763;48.130;11.602;2022-09-21T03:27:18;8.10;99.90
37938;DHT22;23763;48.130;11.602;2022-09-21T03:29:44;8.00;99.90
37938;DHT22;23763;48.130;11.602;2022-09-21T03:32:10;8.00;99.90
37938;DHT22;23763;48.130;11.602;2022-09-21T03:34:36;8.00;99.90
37938;DHT22;23763;48.130;11.602;2022-09-21T03:37:03;8.00;99.90
37938;DHT22;23763;48.130;11.602;2022-09-21T03:39:29;8.00;99.90
37938;DHT22;23763;48.130;11.602;2022-09-21T03:41:55;8.00;99.90
37938;DHT22;23763;48.130;11.602;2022-09-21T03:44:24;7.90;99.90
37938;DHT22;23763;48.130;11.602;2022-09-21T03:46:51;8.00;99.90
37938;DHT22;23763;48.130;11.602;2022-09-21T03:49:17;8.00;99.90
37938;DHT22;23763;48.130;11.602;2022-09-21T03:51:43;7.90;99.90
37938;DHT22;23763;48.130;11.602;2022-09-21T03:54:09;7.90;99.90
37938;DHT22;23763;48.130;11.602;2022-09-21T03:56:35;7.90;99.90
37938;DHT22;23763;48.130;11.602;2022-09-21T03:59:01;7.80;99.90
37938;DHT22;23763;48.130;11.602;2022-09-21T04:01:26;7.80;99.90
37938;DHT22;23763;48.130;11.602;2022-09-21T04:03:53;7.80;99.90
37938;DHT22;23763;48.130;11.602;2022-09-21T04:06:18;7.80;99.90
37938;DHT22;23763;48.130;11.602;2022-09-21T04:08:44;7.70;99.90
37938;DHT22;23763;48.130;11.602;2022-09-21T04:11:15;7.60;99.90
37938;DHT22;23763;48.130;11.602;2022-09-21T04:13:41;7.60;99.90
37938;DHT22;23763;48.130;11.602;2022-09-21T04:16:08;7.50;99.90
37938;DHT22;23763;48.130;11.602;2022-09-21T04:18:35;7.40;99.90
37938;DHT22;23763;48.130;11.602;2022-09-21T04:21:02;7.40;99.90
37938;DHT22;23763;48.130;11.602;2022-09-21T04:23:28;7.30;99.90
37938;DHT22;23763;48.130;11.602;2022-09-21T04:25:54;7.40;99.90
37938;DHT22;23763;48.130;11.602;2022-09-21T04:28:20;7.30;99.90
37938;DHT22;23763;48.130;11.602;2022-09-21T04:30:47;7.30;99.90
37938;DHT22;23763;48.130;11.602;2022-09-21T04:33:12;7.20;99.90
37938;DHT22;23763;48.130;11.602;2022-09-21T04:35:38;7.20;99.90
37938;DHT22;23763;48.130;11.602;2022-09-21T04:38:04;7.20;99.90
37938;DHT22;23763;48.130;11.602;2022-09-21T04:40:29;7.10;99.90
37938;DHT22;23763;48.130;11.602;2022-09-21T04:42:55;7.10;99.90
37938;DHT22;23763;48.130;11.602;2022-09-21T04:45:22;7.10;99.90
37938;DHT22;23763;48.130;11.602;2022-09-21T04:47:48;7.20;99.90
37938;DHT22;23763;48.130;11.602;2022-09-21T04:50:14;7.10;99.90
37938;DHT22;23763;48.130;11.602;2022-09-21T04:52:40;7.20;99.90
37938;DHT22;23763;48.130;11.602;2022-09-21T04:55:06;7.20;99.90
37938;DHT22;23763;48.130;11.602;2022-09-21T04:57:33;7.20;99.90
37938;DHT22;23763;48.130;11.602;2022-09-21T05:00:00;7.10;99.90
37938;DHT22;23763;48.130;11.602;2022-09-21T05:02:26;7.20;99.90
37938;DHT22;23763;48.130;11.602;2022-09-21T05:04:52;7.20;99.90
37938;DHT22;23763;48.130;11.602;2022-09-21T05:07:17;7.10;99.90
37938;DHT22;23763;48.130;11.602;2022-09-21T05:09:43;7.10;99.90
37938;DHT22;23763;48.130;11.602;2022-09-21T05:12:27;7.20;99.90
37938;DHT22;23763;48.130;11.602;2022-09-21T05:14:53;7.30;99.90
37938;DHT22;23763;48.130;11.602;2022-09-21T05:17:20;7.30;99.90
37938;DHT22;23763;48.130;11.602;2022-09-21T05:19:48;7.20;99.90
37938;DHT22;23763;48.130;11.602;2022-09-21T05:22:13;7.30;99.90
37938;DHT22;23763;48.130;11.602;2022-09-21T05:24:39;7.30;99.90
37938;DHT22;23763;48.130;11.602;2022-09-21T05:27:05;7.30;99.90
37938;DHT22;23763;48.130;11.602;2022-09-21T05:29:31;7.30;99.90
37938;DHT22;23763;48.130;11.602;2022-09-21T05:32:22;7.40;99.90
37938;DHT22;23763;48.130;11.602;2022-09-21T05:35:04;7.40;99.90
37938;DHT22;23763;48.130;11.602;2022-09-21T05:37:56;7.40;99.90
37938;DHT22;23763;48.130;11.602;2022-09-21T05:40:24;7.50;99.90
37938;DHT22;23763;48.130;11.602;2022-09-21T05:42:50;7.60;99.90
37938;DHT22;23763;48.130;11.602;2022-09-21T05:45:17;7.70;99.90
37938;DHT22;23763;48.130;11.602;2022-09-21T05:48:16;7.70;99.90
37938;DHT22;23763;48.130;11.602;2022-09-21T05:51:00;7.70;99.90
37938;DHT22;23763;48.130;11.602;2022-09-21T05:56:46;7.90;99.90
37938;DHT22;23763;48.130;11.602;2022-09-21T06:04:56;8.00;99.90
37938;DHT22;23763;48.130;11.602;2022-09-21T06:07:23;8.10;99.90
37938;DHT22;23763;48.130;11.602;2022-09-21T06:09:49;8.20;99.90
37938;DHT22;23763;48.130;11.602;2022-09-21T06:12:15;8.20;99.90
37938;DHT22;23763;48.130;11.602;2022-09-21T06:14:41;8.20;99.90
37938;DHT22;23763;48.130;11.602;2022-09-21T06:17:06;8.10;99.90
37938;DHT22;23763;48.130;11.602;2022-09-21T06:19:32;8.10;99.90
37938;DHT22;23763;48.130;11.602;2022-09-21T06:21:58;8.10;99.90
37938;DHT22;23763;48.130;11.602;2022-09-21T06:24:23;8.30;99.90
37938;DHT22;23763;48.130;11.602;2022-09-21T06:26:49;8.20;99.90
37938;DHT22;23763;48.130;11.602;2022-09-21T06:29:15;8.30;99.90
37938;DHT22;23763;48.130;11.602;2022-09-21T06:31:41;8.30;99.90
37938;DHT22;23763;48.130;11.602;2022-09-21T06:34:07;8.40;99.90
37938;DHT22;23763;48.130;11.602;2022-09-21T06:36:33;8.50;99.90
37938;DHT22;23763;48.130;11.602;2022-09-21T06:38:58;8.50;99.90
37938;DHT22;23763;48.130;11.602;2022-09-21T06:41:24;8.60;99.90
37938;DHT22;23763;48.130;11.602;2022-09-21T06:43:53;8.70;99.90
37938;DHT22;23763;48.130;11.602;2022-09-21T06:46:19;8.70;99.90
37938;DHT22;23763;48.130;11.602;2022-09-21T06:48:45;8.80;99.90
37938;DHT22;23763;48.130;11.602;2022-09-21T06:51:11;8.80;99.90
37938;DHT22;23763;48.130;11.602;2022-09-21T06:53:36;8.80;99.90
37938;DHT22;23763;48.130;11.602;2022-09-21T06:56:07;9.00;99.90
37938;DHT22;23763;48.130;11.602;2022-09-21T06:58:34;9.00;99.90
37938;DHT22;23763;48.130;11.602;2022-09-21T07:01:07;9.20;99.90
37938;DHT22;23763;48.130;11.602;2022-09-21T07:03:33;9.30;99.90
37938;DHT22;23763;48.130;11.602;2022-09-21T07:05:59;9.40;99.90
37938;DHT22;23763;48.130;11.602;2022-09-21T07:08:25;9.40;99.90
37938;DHT22;23763;48.130;11.602;2022-09-21T07:10:51;9.40;99.90
37938;DHT22;23763;48.130;11.602;2022-09-21T07:13:17;9.50;99.90
37938;DHT22;23763;48.130;11.602;2022-09-21T07:15:43;9.50;99.90
37938;DHT22;23763;48.130;11.602;2022-09-21T07:18:13;9.60;99.90
37938;DHT22;23763;48.130;11.602;2022-09-21T07:20:39;9.70;99.90
37938;DHT22;23763;48.130;11.602;2022-09-21T07:23:10;9.70;99.90
37938;DHT22;23763;48.130;11.602;2022-09-21T07:25:36;9.70;99.90
37938;DHT22;23763;48.130;11.602;2022-09-21T07:28:02;9.80;99.90
37938;DHT22;23763;48.130;11.602;2022-09-21T07:30:27;9.90;99.90
37938;DHT22;23763;48.130;11.602;2022-09-21T07:32:53;10.00;99.90
37938;DHT22;23763;48.130;11.602;2022-09-21T07:35:18;10.10;99.90
37938;DHT22;23763;48.130;11.602;2022-09-21T07:37:44;10.20;99.90
37938;DHT22;23763;48.130;11.602;2022-09-21T07:40:10;10.30;99.90
37938;DHT22;23763;48.130;11.602;2022-09-21T07:42:36;10.30;99.90
37938;DHT22;23763;48.130;11.602;2022-09-21T07:45:01;10.40;99.90
37938;DHT22;23763;48.130;11.602;2022-09-21T07:47:27;10.50;99.90
37938;DHT22;23763;48.130;11.602;2022-09-21T07:49:53;10.50;99.90
37938;DHT22;23763;48.130;11.602;2022-09-21T07:52:20;10.60;99.90
37938;DHT22;23763;48.130;11.602;2022-09-21T07:54:46;10.70;99.90
37938;DHT22;23763;48.130;11.602;2022-09-21T07:57:11;10.70;99.90
37938;DHT22;23763;48.130;11.602;2022-09-21T07:59:55;10.80;99.90
37938;DHT22;23763;48.130;11.602;2022-09-21T08:02:23;10.80;99.90
37938;DHT22;23763;48.130;11.602;2022-09-21T08:04:48;10.80;99.90
37938;DHT22;23763;48.130;11.602;2022-09-21T08:07:14;10.90;99.90
37938;DHT22;23763;48.130;11.602;2022-09-21T08:09:40;10.90;99.90
37938;DHT22;23763;48.130;11.602;2022-09-21T08:12:06;11.00;99.90
37938;DHT22;23763;48.130;11.602;2022-09-21T08:14:33;11.10;99.90
37938;DHT22;23763;48.130;11.602;2022-09-21T08:17:00;11.10;99.90
37938;DHT22;23763;48.130;11.602;2022-09-21T08:19:26;11.20;99.90
37938;DHT22;23763;48.130;11.602;2022-09-21T08:21:52;11.30;99.90
37938;DHT22;23763;48.130;11.602;2022-09-21T08:24:18;11.50;99.90
37938;DHT22;23763;48.130;11.602;2022-09-21T08:26:44;11.50;99.90
37938;DHT22;23763;48.130;11.602;2022-09-21T08:29:10;11.50;99.90
37938;DHT22;23763;48.130;11.602;2022-09-21T08:31:38;11.60;99.90
37938;DHT22;23763;48.130;11.602;2022-09-21T08:34:04;11.60;99.90
37938;DHT22;23763;48.130;11.602;2022-09-21T08:36:30;11.60;99.90
37938;DHT22;23763;48.130;11.602;2022-09-21T08:38:56;11.70;99.90
37938;DHT22;23763;48.130;11.602;2022-09-21T08:44:22;11.90;99.90
37938;DHT22;23763;48.130;11.602;2022-09-21T08:47:00;11.90;99.90
37938;DHT22;23763;48.130;11.602;2022-09-21T08:49:29;12.00;99.90
37938;DHT22;23763;48.130;11.602;2022-09-21T08:52:11;12.10;99.90
37938;DHT22;23763;48.130;11.602;2022-09-21T08:54:46;12.10;99.90
37938;DHT22;23763;48.130;11.602;2022-09-21T08:57:14;12.20;99.90
37938;DHT22;23763;48.130;11.602;2022-09-21T08:59:44;12.30;99.90
37938;DHT22;23763;48.130;11.602;2022-09-21T09:10:38;12.80;99.90
37938;DHT22;23763;48.130;11.602;2022-09-21T09:18:54;13.70;99.90
37938;DHT22;23763;48.130;11.602;2022-09-21T09:21:31;13.90;99.90
37938;DHT22;23763;48.130;11.602;2022-09-21T09:26:41;13.80;99.90
37938;DHT22;23763;48.130;11.602;2022-09-21T09:32:13;13.10;99.90
37938;DHT22;23763;48.130;11.602;2022-09-21T09:34:43;12.90;99.90
37938;DHT22;23763;48.130;11.602;2022-09-21T09:37:12;12.80;99.90
37938;DHT22;23763;48.130;11.602;2022-09-21T09:39:38;13.00;99.90
37938;DHT22;23763;48.130;11.602;2022-09-21T09:48:15;14.10;99.90
37938;DHT22;23763;48.130;11.602;2022-09-21T09:50:43;14.30;99.90
37938;DHT22;23763;48.130;11.602;2022-09-21T09:53:12;14.40;99.90
37938;DHT22;23763;48.130;11.602;2022-09-21T09:55:59;14.10;99.90
37938;DHT22;23763;48.130;11.602;2022-09-21T09:58:39;14.30;99.90
37938;DHT22;23763;48.130;11.602;2022-09-21T10:01:06;14.50;99.90
37938;DHT22;23763;48.130;11.602;2022-09-21T10:03:32;14.60;99.90
37938;DHT22;23763;48.130;11.602;2022-09-21T10:05:57;14.70;99.90
37938;DHT22;23763;48.130;11.602;2022-09-21T10:11:13;15.20;99.90
37938;DHT22;23763;48.130;11.602;2022-09-21T10:13:42;15.40;99.90
37938;DHT22;23763;48.130;11.602;2022-09-21T10:16:22;15.30;99.90
37938;DHT22;23763;48.130;11.602;2022-09-21T10:18:55;15.60;99.90
37938;DHT22;23763;48.130;11.602;2022-09-21T10:21:33;15.70;99.90
37938;DHT22;23763;48.130;11.602;2022-09-21T10:26:49;15.80;99.90
37938;DHT22;23763;48.130;11.602;2022-09-21T10:31:55;15.70;99.90
37938;DHT22;23763;48.130;11.602;2022-09-21T10:34:25;15.60;99.90
37938;DHT22;23763;48.130;11.602;2022-09-21T10:36:54;15.50;99.90
37938;DHT22;23763;48.130;11.602;2022-09-21T10:42:10;15.90;99.90
37938;DHT22;23763;48.130;11.602;2022-09-21T10:49:47;15.50;99.90
37938;DHT22;23763;48.130;11.602;2022-09-21T10:52:19;15.70;99.90
37938;DHT22;23763;48.130;11.602;2022-09-21T10:54:48;15.50;99.90
37938;DHT22;23763;48.130;11.602;2022-09-21T10:57:20;15.50;99.90
37938;DHT22;23763;48.130;11.602;2022-09-21T10:59:46;15.40;99.90
37938;DHT22;23763;48.130;11.602;2022-09-21T11:02:35;15.50;99.90
37938;DHT22;23763;48.130;11.602;2022-09-21T11:05:08;15.70;99.90
37938;DHT22;23763;48.130;11.602;2022-09-21T11:07:48;15.80;99.90
37938;DHT22;23763;48.130;11.602;2022-09-21T11:27:23;15.00;99.90
37938;DHT22;23763;48.130;11.602;2022-09-21T11:30:09;15.00;99.90
37938;DHT22;23763;48.130;11.602;2022-09-21T11:38:17;15.10;99.90
37938;DHT22;23763;48.130;11.602;2022-09-21T11:41:01;15.20;99.90
37938;DHT22;23763;48.130;11.602;2022-09-21T11:46:10;15.10;99.90
37938;DHT22;23763;48.130;11.602;2022-09-21T11:54:45;15.00;99.90
37938;DHT22;23763;48.130;11.602;2022-09-21T12:00:19;15.20;99.90
37938;DHT22;23763;48.130;11.602;2022-09-21T12:11:36;15.20;99.90
37938;DHT22;23763;48.130;11.602;2022-09-21T12:14:27;15.20;99.50
37938;DHT22;23763;48.130;11.602;2022-09-21T12:17:22;15.10;99.30
37938;DHT22;23763;48.130;11.602;2022-09-21T12:22:36;15.00;99.20
37938;DHT22;23763;48.130;11.602;2022-09-21T12:27:42;15.20;99.40
37938;DHT22;23763;48.130;11.602;2022-09-21T12:30:18;15.30;98.90
37938;DHT22;23763;48.130;11.602;2022-09-21T12:40:53;15.50;99.00
37938;DHT22;23763;48.130;11.602;2022-09-21T12:46:54;15.30;98.40
37938;DHT22;23763;48.130;11.602;2022-09-21T12:49:25;15.40;97.60
37938;DHT22;23763;48.130;11.602;2022-09-21T12:51:56;15.50;97.40
37938;DHT22;23763;48.130;11.602;2022-09-21T13:00:25;15.40;93.80
37938;DHT22;23763;48.130;11.602;2022-09-21T13:03:11;15.60;95.10
37938;DHT22;23763;48.130;11.602;2022-09-21T13:06:04;15.80;95.10
37938;DHT22;23763;48.130;11.602;2022-09-21T13:08:39;15.90;95.10
37938;DHT22;23763;48.130;11.602;2022-09-21T13:11:06;15.90;95.70
37938;DHT22;23763;48.130;11.602;2022-09-21T13:13:37;15.70;96.20
37938;DHT22;23763;48.130;11.602;2022-09-21T13:16:31;15.90;96.80
37938;DHT22;23763;48.130;11.602;2022-09-21T13:19:02;16.10;96.00
37938;DHT22;23763;48.130;11.602;2022-09-21T13:21:31;16.10;96.40
37938;DHT22;23763;48.130;11.602;2022-09-21T13:24:28;16.20;95.90
37938;DHT22;23763;48.130;11.602;2022-09-21T13:26:58;16.20;95.40
37938;DHT22;23763;48.130;11.602;2022-09-21T13:29:36;16.20;95.60
37938;DHT22;23763;48.130;11.602;2022-09-21T13:32:19;15.90;95.30
37938;DHT22;23763;48.130;11.602;2022-09-21T13:34:45;15.70;95.40
37938;DHT22;23763;48.130;11.602;2022-09-21T13:39:55;15.50;95.70
37938;DHT22;23763;48.130;11.602;2022-09-21T13:47:54;15.50;94.50
37938;DHT22;23763;48.130;11.602;2022-09-21T13:50:31;15.50;92.60
37938;DHT22;23763;48.130;11.602;2022-09-21T13:53:02;15.20;93.90
37938;DHT22;23763;48.130;11.602;2022-09-21T13:55:36;15.20;94.40
37938;DHT22;23763;48.130;11.602;2022-09-21T13:58:20;15.20;94.50
37938;DHT22;23763;48.130;11.602;2022-09-21T14:03:24;15.10;95.10
37938;DHT22;23763;48.130;11.602;2022-09-21T14:05:59;15.20;95.70
37938;DHT22;23763;48.130;11.602;2022-09-21T14:08:30;15.40;95.40
37938;DHT22;23763;48.130;11.602;2022-09-21T14:11:03;15.50;94.80
37938;DHT22;23763;48.130;11.602;2022-09-21T14:13:39;15.50;95.10
37938;DHT22;23763;48.130;11.602;2022-09-21T14:19:02;15.80;94.80
37938;DHT22;23763;48.130;11.602;2022-09-21T14:21:28;15.80;94.50
37938;DHT22;23763;48.130;11.602;2022-09-21T14:24:17;15.70;94.60
37938;DHT22;23763;48.130;11.602;2022-09-21T14:27:02;15.50;94.10
37938;DHT22;23763;48.130;11.602;2022-09-21T14:32:28;15.40;94.80
37938;DHT22;23763;48.130;11.602;2022-09-21T14:35:32;15.40;94.70
37938;DHT22;23763;48.130;11.602;2022-09-21T14:38:01;15.10;94.80
37938;DHT22;23763;48.130;11.602;2022-09-21T14:40:34;15.00;94.40
37938;DHT22;23763;48.130;11.602;2022-09-21T14:43:21;15.00;94.40
37938;DHT22;23763;48.130;11.602;2022-09-21T14:49:13;15.20;94.30
37938;DHT22;23763;48.130;11.602;2022-09-21T15:05:32;15.40;94.00
37938;DHT22;23763;48.130;11.602;2022-09-21T15:11:08;15.50;93.30
37938;DHT22;23763;48.130;11.602;2022-09-21T15:16:38;15.30;92.70
37938;DHT22;23763;48.130;11.602;2022-09-21T15:19:28;15.30;92.90
37938;DHT22;23763;48.130;11.602;2022-09-21T15:26:49;14.90;93.90
37938;DHT22;23763;48.130;11.602;2022-09-21T15:29:25;14.80;94.40
37938;DHT22;23763;48.130;11.602;2022-09-21T15:31:52;14.70;94.90
37938;DHT22;23763;48.130;11.602;2022-09-21T15:34:19;14.70;94.90
37938;DHT22;23763;48.130;11.602;2022-09-21T15:36:45;14.70;94.90
37938;DHT22;23763;48.130;11.602;2022-09-21T15:39:28;14.70;94.80
37938;DHT22;23763;48.130;11.602;2022-09-21T15:44:34;14.70;95.00
37938;DHT22;23763;48.130;11.602;2022-09-21T15:47:03;14.60;94.80
37938;DHT22;23763;48.130;11.602;2022-09-21T15:49:33;14.60;94.80
37938;DHT22;23763;48.130;11.602;2022-09-21T15:52:10;14.60;95.40
37938;DHT22;23763;48.130;11.602;2022-09-21T15:59:51;14.40;95.60
37938;DHT22;23763;48.130;11.602;2022-09-21T16:02:21;14.40;95.70
37938;DHT22;23763;48.130;11.602;2022-09-21T16:04:48;14.30;95.60
37938;DHT22;23763;48.130;11.602;2022-09-21T16:07:43;14.20;96.00
37938;DHT22;23763;48.130;11.602;2022-09-21T16:13:23;14.10;97.30
37938;DHT22;23763;48.130;11.602;2022-09-21T16:16:13;14.00;97.70
37938;DHT22;23763;48.130;11.602;2022-09-21T16:18:50;13.90;97.80
37938;DHT22;23763;48.130;11.602;2022-09-21T16:21:31;13.90;98.30
37938;DHT22;23763;48.130;11.602;2022-09-21T16:24:17;13.80;98.50
37938;DHT22;23763;48.130;11.602;2022-09-21T16:26:55;13.80;98.20
37938;DHT22;23763;48.130;11.602;2022-09-21T16:29:24;13.70;98.40
37938;DHT22;23763;48.130;11.602;2022-09-21T16:31:51;13.60;99.10
37938;DHT22;23763;48.130;11.602;2022-09-21T16:34:38;13.60;99.00
37938;DHT22;23763;48.130;11.602;2022-09-21T16:39:53;13.50;99.80
37938;DHT22;23763;48.130;11.602;2022-09-21T16:42:21;13.40;99.90
37938;DHT22;23763;48.130;11.602;2022-09-21T16:44:47;13.40;99.90
37938;DHT22;23763;48.130;11.602;2022-09-21T16:47:19;13.40;99.90
37938;DHT22;23763;48.130;11.602;2022-09-21T16:49:50;13.30;99.90
37938;DHT22;23763;48.130;11.602;2022-09-21T16:52:21;13.30;99.90
37938;DHT22;23763;48.130;11.602;2022-09-21T16:54:48;13.20;99.90
37938;DHT22;23763;48.130;11.602;2022-09-21T16:57:15;13.20;99.90
37938;DHT22;23763;48.130;11.602;2022-09-21T16:59:41;13.10;99.90
37938;DHT22;23763;48.130;11.602;2022-09-21T17:02:09;13.00;99.90
37938;DHT22;23763;48.130;11.602;2022-09-21T17:04:36;13.00;99.90
37938;DHT22;23763;48.130;11.602;2022-09-21T17:07:03;12.90;99.90
37938;DHT22;23763;48.130;11.602;2022-09-21T17:12:02;12.90;99.90
37938;DHT22;23763;48.130;11.602;2022-09-21T17:14:32;12.80;99.90
37938;DHT22;23763;48.130;11.602;2022-09-21T17:19:43;12.70;99.90
37938;DHT22;23763;48.130;11.602;2022-09-21T17:22:11;12.60;99.90
37938;DHT22;23763;48.130;11.602;2022-09-21T17:24:42;12.60;99.90
37938;DHT22;23763;48.130;11.602;2022-09-21T17:27:10;12.50;99.90
37938;DHT22;23763;48.130;11.602;2022-09-21T17:29:39;12.50;99.90
37938;DHT22;23763;48.130;11.602;2022-09-21T17:32:16;12.40;99.90
37938;DHT22;23763;48.130;11.602;2022-09-21T17:34:45;12.40;99.90
37938;DHT22;23763;48.130;11.602;2022-09-21T17:37:11;12.40;99.90
37938;DHT22;23763;48.130;11.602;2022-09-21T17:39:37;12.30;99.90
37938;DHT22;23763;48.130;11.602;2022-09-21T17:42:17;12.20;99.90
37938;DHT22;23763;48.130;11.602;2022-09-21T17:47:24;12.20;99.90
37938;DHT22;23763;48.130;11.602;2022-09-21T17:49:53;12.10;99.90
37938;DHT22;23763;48.130;11.602;2022-09-21T17:52:22;12.10;99.90
37938;DHT22;23763;48.130;11.602;2022-09-21T17:55:11;12.00;99.90
37938;DHT22;23763;48.130;11.602;2022-09-21T18:00:19;12.00;99.90
37938;DHT22;23763;48.130;11.602;2022-09-21T18:02:46;12.00;99.90
37938;DHT22;23763;48.130;11.602;2022-09-21T18:05:29;11.90;99.90
37938;DHT22;23763;48.130;11.602;2022-09-21T18:07:55;11.90;99.90
37938;DHT22;23763;48.130;11.602;2022-09-21T18:10:23;11.90;99.90
37938;DHT22;23763;48.130;11.602;2022-09-21T18:18:43;11.80;99.90
37938;DHT22;23763;48.130;11.602;2022-09-21T18:21:18;11.80;99.90
37938;DHT22;23763;48.130;11.602;2022-09-21T18:26:11;11.70;99.90
37938;DHT22;23763;48.130;11.602;2022-09-21T18:28:45;11.60;99.90
37938;DHT22;23763;48.130;11.602;2022-09-21T18:33:53;11.60;99.90
37938;DHT22;23763;48.130;11.602;2022-09-21T18:39:25;11.50;99.90
37938;DHT22;23763;48.130;11.602;2022-09-21T18:44:49;11.40;99.90
37938;DHT22;23763;48.130;11.602;2022-09-21T18:47:24;11.40;99.90
37938;DHT22;23763;48.130;11.602;2022-09-21T18:52:56;11.30;99.90
37938;DHT22;23763;48.130;11.602;2022-09-21T18:55:27;11.30;99.90
37938;DHT22;23763;48.130;11.602;2022-09-21T18:57:58;11.30;99.90
37938;DHT22;23763;48.130;11.602;2022-09-21T19:00:26;11.30;99.90
37938;DHT22;23763;48.130;11.602;2022-09-21T19:02:56;11.20;99.90
37938;DHT22;23763;48.130;11.602;2022-09-21T19:05:23;11.20;99.90
37938;DHT22;23763;48.130;11.602;2022-09-21T19:10:46;11.10;99.90
37938;DHT22;23763;48.130;11.602;2022-09-21T19:13:52;11.10;99.90
37938;DHT22;23763;48.130;11.602;2022-09-21T19:16:50;11.00;99.90
37938;DHT22;23763;48.130;11.602;2022-09-21T19:22:02;10.90;99.90
37938;DHT22;23763;48.130;11.602;2022-09-21T19:24:56;10.90;99.90
37938;DHT22;23763;48.130;11.602;2022-09-21T19:27:45;10.90;99.90
37938;DHT22;23763;48.130;11.602;2022-09-21T19:30:15;10.90;99.90
37938;DHT22;23763;48.130;11.602;2022-09-21T19:32:45;10.80;99.90
37938;DHT22;23763;48.130;11.602;2022-09-21T19:35:20;10.80;99.90
37938;DHT22;23763;48.130;11.602;2022-09-21T19:37:47;10.80;99.90
37938;DHT22;23763;48.130;11.602;2022-09-21T19:40:15;10.80;99.90
37938;DHT22;23763;48.130;11.602;2022-09-21T19:45:51;10.60;99.90
37938;DHT22;23763;48.130;11.602;2022-09-21T19:48:17;10.60;99.90